sensor_id;sensor_type;location;lat;lon;timestamp;pressure;altitude;pressure_sealevel;temperature;humidity
52105;BME280;38103;42.776;23.112;2023-02-17T00:00:04;94836.13;;;2.07;69.98
52105;BME280;38103;42.776;23.112;2023-02-17T00:02:32;94833.25;;;2.19;69.82
52105;BME280;38103;42.776;23.112;2023-02-17T00:04:58;94838.13;;;2.14;69.68
52105;BME280;38103;42.776;23.112;2023-02-17T00:07:23;94836.78;;;2.01;70.26
52105;BME280;38103;42.776;23.112;2023-02-17T00:09:49;94829.78;;;2.10;70.13
52105;BME280;38103;42.776;23.112;2023-02-17T00:12:14;94835.81;;;2.10;70.55
52105;BME280;38103;42.776;23.112;2023-02-17T00:14:39;94833.34;;;2.09;70.77
52105;BME280;38103;42.776;23.112;2023-02-17T00:17:05;94830.41;;;2.04;71.26
52105;BME280;38103;42.776;23.112;2023-02-17T00:19:31;94827.66;;;2.05;71.27
52105;BME280;38103;42.776;23.112;2023-02-17T00:21:59;94808.06;;;1.93;71.32
52105;BME280;38103;42.776;23.112;2023-02-17T00:24:27;94815.56;;;2.04;71.52
52105;BME280;38103;42.776;23.112;2023-02-17T00:26:53;94830.59;;;2.10;71.13
52105;BME280;38103;42.776;23.112;2023-02-17T00:29:18;94793.69;;;1.88;71.68
52105;BME280;38103;42.776;23.112;2023-02-17T00:31:44;94818.22;;;2.12;71.57
52105;BME280;38103;42.776;23.112;2023-02-17T00:34:10;94815.28;;;2.16;71.34
52105;BME280;38103;42.776;23.112;2023-02-17T00:36:36;94821.16;;;2.18;70.97
52105;BME280;38103;42.776;23.112;2023-02-17T00:39:02;94824.09;;;2.23;70.26
52105;BME280;38103;42.776;23.112;2023-02-17T00:41:28;94822.16;;;2.25;70.11
52105;BME280;38103;42.776;23.112;2023-02-17T00:43:54;94817.75;;;2.26;70.02
52105;BME280;38103;42.776;23.112;2023-02-17T00:46:20;94814.63;;;2.22;70.54
52105;BME280;38103;42.776;23.112;2023-02-17T00:48:46;94812.69;;;2.16;70.14
52105;BME280;38103;42.776;23.112;2023-02-17T00:51:13;94803.91;;;2.33;69.52
52105;BME280;38103;42.776;23.112;2023-02-17T00:53:39;94780.06;;;2.20;69.05
52105;BME280;38103;42.776;23.112;2023-02-17T00:56:05;94800.63;;;2.48;68.33
52105;BME280;38103;42.776;23.112;2023-02-17T00:58:31;94799.97;;;2.38;68.66
52105;BME280;38103;42.776;23.112;2023-02-17T01:00:57;94803.25;;;2.48;68.22
52105;BME280;38103;42.776;23.112;2023-02-17T01:03:23;94803.75;;;2.60;68.10
52105;BME280;38103;42.776;23.112;2023-02-17T01:05:49;94785.66;;;2.42;68.20
52105;BME280;38103;42.776;23.112;2023-02-17T01:08:15;94800.97;;;2.45;68.17
52105;BME280;38103;42.776;23.112;2023-02-17T01:10:42;94807.00;;;2.45;69.14
52105;BME280;38103;42.776;23.112;2023-02-17T01:13:09;94759.97;;;2.04;69.70
52105;BME280;38103;42.776;23.112;2023-02-17T01:15:39;94799.50;;;2.26;69.41
52105;BME280;38103;42.776;23.112;2023-02-17T01:18:05;94791.50;;;2.19;69.98
52105;BME280;38103;42.776;23.112;2023-02-17T01:20:35;94801.44;;;2.15;70.43
52105;BME280;38103;42.776;23.112;2023-02-17T01:23:01;94801.91;;;2.10;71.18
52105;BME280;38103;42.776;23.112;2023-02-17T01:25:26;94802.56;;;2.12;70.92
52105;BME280;38103;42.776;23.112;2023-02-17T01:27:52;94793.13;;;2.20;70.47
52105;BME280;38103;42.776;23.112;2023-02-17T01:30:17;94792.16;;;2.29;70.12
52105;BME280;38103;42.776;23.112;2023-02-17T01:32:43;94796.88;;;2.42;69.25
52105;BME280;38103;42.776;23.112;2023-02-17T01:35:08;94802.09;;;2.42;69.10
52105;BME280;38103;42.776;23.112;2023-02-17T01:37:33;94786.94;;;2.38;69.24
52105;BME280;38103;42.776;23.112;2023-02-17T01:39:59;94802.44;;;2.39;69.31
52105;BME280;38103;42.776;23.112;2023-02-17T01:42:24;94806.69;;;2.32;69.67
52105;BME280;38103;42.776;23.112;2023-02-17T01:45:29;94798.69;;;2.33;69.58
52105;BME280;38103;42.776;23.112;2023-02-17T01:50:31;94801.91;;;2.27;69.98
52105;BME280;38103;42.776;23.112;2023-02-17T01:52:56;94788.72;;;2.29;69.75
52105;BME280;38103;42.776;23.112;2023-02-17T01:55:23;94796.38;;;2.30;69.65
52105;BME280;38103;42.776;23.112;2023-02-17T01:57:53;94790.84;;;2.33;69.76
52105;BME280;38103;42.776;23.112;2023-02-17T02:00:22;94778.44;;;2.27;69.28
52105;BME280;38103;42.776;23.112;2023-02-17T02:02:49;94793.63;;;2.32;69.81
52105;BME280;38103;42.776;23.112;2023-02-17T02:05:17;94788.56;;;2.30;69.30
52105;BME280;38103;42.776;23.112;2023-02-17T02:07:43;94790.19;;;2.31;69.34
52105;BME280;38103;42.776;23.112;2023-02-17T02:10:12;94789.88;;;2.26;70.38
52105;BME280;38103;42.776;23.112;2023-02-17T02:12:40;94783.00;;;2.17;70.75
52105;BME280;38103;42.776;23.112;2023-02-17T02:15:09;94785.28;;;2.20;70.32
52105;BME280;38103;42.776;23.112;2023-02-17T02:31:03;94780.41;;;2.08;70.63
52105;BME280;38103;42.776;23.112;2023-02-17T02:33:37;94787.41;;;2.16;70.56
52105;BME280;38103;42.776;23.112;2023-02-17T02:36:16;94776.16;;;2.32;69.74
52105;BME280;38103;42.776;23.112;2023-02-17T02:41:19;94784.00;;;2.41;68.86
52105;BME280;38103;42.776;23.112;2023-02-17T02:43:46;94782.53;;;2.30;69.73
52105;BME280;38103;42.776;23.112;2023-02-17T02:46:11;94779.09;;;2.21;69.55
52105;BME280;38103;42.776;23.112;2023-02-17T02:48:37;94784.78;;;2.25;69.40
52105;BME280;38103;42.776;23.112;2023-02-17T02:51:15;94785.31;;;2.28;69.46
52105;BME280;38103;42.776;23.112;2023-02-17T02:53:49;94788.56;;;2.30;69.26
52105;BME280;38103;42.776;23.112;2023-02-17T02:56:32;94787.59;;;2.31;69.01
52105;BME280;38103;42.776;23.112;2023-02-17T02:59:16;94794.59;;;2.31;69.18
52105;BME280;38103;42.776;23.112;2023-02-17T03:01:52;94796.72;;;2.36;68.70
52105;BME280;38103;42.776;23.112;2023-02-17T03:04:36;94803.59;;;2.37;69.22
52105;BME280;38103;42.776;23.112;2023-02-17T03:09:31;94803.91;;;2.33;69.21
52105;BME280;38103;42.776;23.112;2023-02-17T03:11:58;94744.16;;;1.97;68.85
52105;BME280;38103;42.776;23.112;2023-02-17T03:14:23;94804.22;;;2.30;69.51
52105;BME280;38103;42.776;23.112;2023-02-17T03:16:50;94749.69;;;1.94;69.06
52105;BME280;38103;42.776;23.112;2023-02-17T03:19:17;94801.28;;;2.25;69.31
52105;BME280;38103;42.776;23.112;2023-02-17T03:21:57;94801.59;;;2.30;69.29
52105;BME280;38103;42.776;23.112;2023-02-17T03:24:24;94801.59;;;2.30;69.25
52105;BME280;38103;42.776;23.112;2023-02-17T03:26:49;94795.06;;;2.18;69.92
52105;BME280;38103;42.776;23.112;2023-02-17T03:29:15;94792.13;;;2.12;69.97
52105;BME280;38103;42.776;23.112;2023-02-17T03:31:40;94785.88;;;1.88;70.83
52105;BME280;38103;42.776;23.112;2023-02-17T03:34:06;94777.97;;;1.63;72.59
52105;BME280;38103;42.776;23.112;2023-02-17T03:36:32;94782.03;;;1.49;73.06
52105;BME280;38103;42.776;23.112;2023-02-17T03:38:57;94779.22;;;1.42;73.58
52105;BME280;38103;42.776;23.112;2023-02-17T03:41:23;94777.25;;;1.36;74.14
52105;BME280;38103;42.776;23.112;2023-02-17T03:43:49;94771.44;;;1.51;73.13
52105;BME280;38103;42.776;23.112;2023-02-17T03:46:16;94774.41;;;1.64;72.90
52105;BME280;38103;42.776;23.112;2023-02-17T03:48:41;94774.41;;;1.64;72.44
52105;BME280;38103;42.776;23.112;2023-02-17T03:51:12;94752.22;;;1.52;72.13
52105;BME280;38103;42.776;23.112;2023-02-17T03:53:38;94776.06;;;1.74;71.99
52105;BME280;38103;42.776;23.112;2023-02-17T03:56:04;94790.75;;;1.75;72.09
52105;BME280;38103;42.776;23.112;2023-02-17T03:58:29;94798.84;;;1.63;72.71
52105;BME280;38103;42.776;23.112;2023-02-17T04:00:55;94800.19;;;1.67;72.69
52105;BME280;38103;42.776;23.112;2023-02-17T04:03:20;94800.00;;;1.69;72.27
52105;BME280;38103;42.776;23.112;2023-02-17T04:05:45;94796.19;;;1.55;73.07
52105;BME280;38103;42.776;23.112;2023-02-17T04:08:11;94799.03;;;1.35;73.79
52105;BME280;38103;42.776;23.112;2023-02-17T04:10:36;94760.44;;;0.95;74.95
52105;BME280;38103;42.776;23.112;2023-02-17T04:13:01;94801.25;;;1.21;74.76
52105;BME280;38103;42.776;23.112;2023-02-17T04:15:27;94798.69;;;1.30;74.59
52105;BME280;38103;42.776;23.112;2023-02-17T04:17:54;94793.44;;;1.21;74.82
52105;BME280;38103;42.776;23.112;2023-02-17T04:20:19;94795.38;;;1.19;75.38
52105;BME280;38103;42.776;23.112;2023-02-17T04:22:44;94802.59;;;1.26;74.78
52105;BME280;38103;42.776;23.112;2023-02-17T04:25:10;94804.84;;;1.20;74.94
52105;BME280;38103;42.776;23.112;2023-02-17T04:27:36;94805.16;;;1.17;75.26
52105;BME280;38103;42.776;23.112;2023-02-17T04:30:01;94803.66;;;0.88;76.51
52105;BME280;38103;42.776;23.112;2023-02-17T04:32:27;94806.34;;;0.78;77.80
52105;BME280;38103;42.776;23.112;2023-02-17T04:34:53;94807.78;;;0.72;78.00
52105;BME280;38103;42.776;23.112;2023-02-17T04:37:18;94809.06;;;0.68;78.64
52105;BME280;38103;42.776;23.112;2023-02-17T04:39:43;94811.66;;;0.68;79.05
52105;BME280;38103;42.776;23.112;2023-02-17T04:42:09;94810.91;;;0.76;78.88
52105;BME280;38103;42.776;23.112;2023-02-17T04:44:34;94819.09;;;0.63;79.57
52105;BME280;38103;42.776;23.112;2023-02-17T04:46:59;94814.16;;;0.51;79.83
52105;BME280;38103;42.776;23.112;2023-02-17T04:49:25;94813.91;;;0.63;80.00
52105;BME280;38103;42.776;23.112;2023-02-17T04:51:50;94811.97;;;0.65;79.56
52105;BME280;38103;42.776;23.112;2023-02-17T04:54:15;94806.63;;;0.66;79.38
52105;BME280;38103;42.776;23.112;2023-02-17T04:56:41;94804.84;;;0.67;79.38
52105;BME280;38103;42.776;23.112;2023-02-17T04:59:06;94805.25;;;0.81;79.05
52105;BME280;38103;42.776;23.112;2023-02-17T05:01:32;94810.44;;;0.81;78.75
52105;BME280;38103;42.776;23.112;2023-02-17T05:03:57;94809.72;;;0.70;79.06
52105;BME280;38103;42.776;23.112;2023-02-17T05:06:22;94792.72;;;0.58;79.50
52105;BME280;38103;42.776;23.112;2023-02-17T05:08:48;94806.66;;;0.75;79.42
52105;BME280;38103;42.776;23.112;2023-02-17T05:11:15;94806.59;;;0.85;78.60
52105;BME280;38103;42.776;23.112;2023-02-17T05:13:40;94809.59;;;0.98;78.02
52105;BME280;38103;42.776;23.112;2023-02-17T05:16:05;94811.06;;;1.01;77.51
52105;BME280;38103;42.776;23.112;2023-02-17T05:18:31;94817.81;;;1.12;76.74
52105;BME280;38103;42.776;23.112;2023-02-17T05:20:56;94813.63;;;1.19;76.24
52105;BME280;38103;42.776;23.112;2023-02-17T05:23:21;94821.38;;;1.11;76.65
52105;BME280;38103;42.776;23.112;2023-02-17T05:25:47;94826.50;;;1.21;76.62
52105;BME280;38103;42.776;23.112;2023-02-17T05:28:12;94828.94;;;1.22;76.36
52105;BME280;38103;42.776;23.112;2023-02-17T05:30:38;94842.31;;;1.28;76.69
52105;BME280;38103;42.776;23.112;2023-02-17T05:33:03;94833.56;;;1.29;76.54
52105;BME280;38103;42.776;23.112;2023-02-17T05:35:28;94814.44;;;1.20;76.73
52105;BME280;38103;42.776;23.112;2023-02-17T05:37:54;94842.72;;;1.41;76.35
52105;BME280;38103;42.776;23.112;2023-02-17T05:40:20;94832.72;;;1.28;77.58
52105;BME280;38103;42.776;23.112;2023-02-17T05:42:46;94818.75;;;1.03;78.82
52105;BME280;38103;42.776;23.112;2023-02-17T05:45:11;94850.91;;;1.20;79.11
52105;BME280;38103;42.776;23.112;2023-02-17T05:47:37;94851.25;;;1.25;79.23
52105;BME280;38103;42.776;23.112;2023-02-17T05:50:03;94863.88;;;1.38;78.83
52105;BME280;38103;42.776;23.112;2023-02-17T05:52:28;94865.50;;;1.39;78.64
52105;BME280;38103;42.776;23.112;2023-02-17T05:54:54;94853.47;;;1.38;78.59
52105;BME280;38103;42.776;23.112;2023-02-17T05:57:19;94858.72;;;1.47;78.65
52105;BME280;38103;42.776;23.112;2023-02-17T05:59:45;94865.00;;;1.62;77.85
52105;BME280;38103;42.776;23.112;2023-02-17T06:02:10;94868.63;;;1.78;77.25
52105;BME280;38103;42.776;23.112;2023-02-17T06:04:35;94836.72;;;1.84;76.10
52105;BME280;38103;42.776;23.112;2023-02-17T06:07:01;94867.44;;;2.07;76.04
52105;BME280;38103;42.776;23.112;2023-02-17T06:09:26;94870.06;;;2.16;75.14
52105;BME280;38103;42.776;23.112;2023-02-17T06:11:52;94875.16;;;2.26;74.39
52105;BME280;38103;42.776;23.112;2023-02-17T06:14:17;94880.22;;;2.36;73.55
52105;BME280;38103;42.776;23.112;2023-02-17T06:16:42;94875.53;;;2.39;72.72
52105;BME280;38103;42.776;23.112;2023-02-17T06:19:08;94883.19;;;2.41;72.65
52105;BME280;38103;42.776;23.112;2023-02-17T06:21:33;94880.63;;;2.58;71.79
52105;BME280;38103;42.776;23.112;2023-02-17T06:23:59;94893.31;;;2.61;71.59
52105;BME280;38103;42.776;23.112;2023-02-17T06:26:24;94881.44;;;2.83;70.95
52105;BME280;38103;42.776;23.112;2023-02-17T06:28:49;94887.47;;;3.00;70.16
52105;BME280;38103;42.776;23.112;2023-02-17T06:31:15;94893.03;;;3.06;69.30
52105;BME280;38103;42.776;23.112;2023-02-17T06:33:40;94893.38;;;3.11;68.56
52105;BME280;38103;42.776;23.112;2023-02-17T06:36:06;94887.31;;;3.27;68.20
52105;BME280;38103;42.776;23.112;2023-02-17T06:38:31;94903.28;;;3.41;67.48
52105;BME280;38103;42.776;23.112;2023-02-17T06:40:57;94903.09;;;3.51;66.25
52105;BME280;38103;42.776;23.112;2023-02-17T06:43:22;94903.72;;;3.78;65.29
52105;BME280;38103;42.776;23.112;2023-02-17T06:45:47;94897.63;;;3.94;64.61
52105;BME280;38103;42.776;23.112;2023-02-17T06:48:13;94898.47;;;4.27;64.15
52105;BME280;38103;42.776;23.112;2023-02-17T06:50:38;94891.13;;;4.77;63.33
52105;BME280;38103;42.776;23.112;2023-02-17T06:53:04;94892.00;;;5.32;61.78
52105;BME280;38103;42.776;23.112;2023-02-17T06:55:29;94859.31;;;5.58;60.32
52105;BME280;38103;42.776;23.112;2023-02-17T06:57:55;94884.09;;;6.31;58.07
52105;BME280;38103;42.776;23.112;2023-02-17T07:00:21;94882.53;;;6.74;55.95
52105;BME280;38103;42.776;23.112;2023-02-17T07:02:47;94885.72;;;7.13;54.64
52105;BME280;38103;42.776;23.112;2023-02-17T07:05:12;94883.63;;;7.59;53.18
52105;BME280;38103;42.776;23.112;2023-02-17T07:07:37;94879.03;;;8.04;51.35
52105;BME280;38103;42.776;23.112;2023-02-17T07:10:03;94840.91;;;8.00;49.85
52105;BME280;38103;42.776;23.112;2023-02-17T07:12:29;94876.84;;;8.77;48.55
52105;BME280;38103;42.776;23.112;2023-02-17T07:14:54;94879.34;;;9.13;46.99
52105;BME280;38103;42.776;23.112;2023-02-17T07:17:20;94879.16;;;9.35;45.81
52105;BME280;38103;42.776;23.112;2023-02-17T07:19:45;94880.97;;;9.41;45.05
52105;BME280;38103;42.776;23.112;2023-02-17T07:22:10;94887.88;;;9.49;44.92
52105;BME280;38103;42.776;23.112;2023-02-17T07:24:36;94887.47;;;9.45;44.20
52105;BME280;38103;42.776;23.112;2023-02-17T07:27:04;94886.22;;;9.68;44.05
52105;BME280;38103;42.776;23.112;2023-02-17T07:29:29;94889.88;;;9.81;42.69
52105;BME280;38103;42.776;23.112;2023-02-17T07:31:55;94895.91;;;10.09;43.17
52105;BME280;38103;42.776;23.112;2023-02-17T07:34:20;94888.50;;;10.38;42.16
52105;BME280;38103;42.776;23.112;2023-02-17T07:36:46;94891.81;;;10.20;41.87
52105;BME280;38103;42.776;23.112;2023-02-17T07:39:11;94888.50;;;10.38;41.44
52105;BME280;38103;42.776;23.112;2023-02-17T07:41:37;94884.63;;;10.80;40.91
52105;BME280;38103;42.776;23.112;2023-02-17T07:44:02;94887.09;;;11.39;39.59
52105;BME280;38103;42.776;23.112;2023-02-17T07:46:27;94883.44;;;11.85;38.53
52105;BME280;38103;42.776;23.112;2023-02-17T07:48:53;94879.94;;;12.29;37.51
52105;BME280;38103;42.776;23.112;2023-02-17T07:51:21;94880.34;;;12.45;37.19
52105;BME280;38103;42.776;23.112;2023-02-17T07:53:48;94881.94;;;12.34;37.24
52105;BME280;38103;42.776;23.112;2023-02-17T07:56:15;94872.09;;;12.53;36.42
52105;BME280;38103;42.776;23.112;2023-02-17T07:58:42;94883.56;;;12.16;36.78
52105;BME280;38103;42.776;23.112;2023-02-17T08:01:17;94885.47;;;12.27;37.34
52105;BME280;38103;42.776;23.112;2023-02-17T08:03:44;94881.97;;;12.46;36.26
52105;BME280;38103;42.776;23.112;2023-02-17T08:06:17;94890.66;;;12.53;36.57
52105;BME280;38103;42.776;23.112;2023-02-17T08:08:43;94884.41;;;12.78;35.89
52105;BME280;38103;42.776;23.112;2023-02-17T08:11:27;94846.63;;;12.95;35.05
52105;BME280;38103;42.776;23.112;2023-02-17T08:14:11;94877.59;;;13.01;34.48
52105;BME280;38103;42.776;23.112;2023-02-17T08:16:37;94876.13;;;13.17;34.81
52105;BME280;38103;42.776;23.112;2023-02-17T08:19:02;94881.47;;;13.41;35.30
52105;BME280;38103;42.776;23.112;2023-02-17T08:21:28;94877.94;;;13.60;34.80
52105;BME280;38103;42.776;23.112;2023-02-17T08:23:54;94879.91;;;13.89;33.89
52105;BME280;38103;42.776;23.112;2023-02-17T08:26:20;94872.41;;;13.85;33.30
52105;BME280;38103;42.776;23.112;2023-02-17T08:28:46;94870.56;;;13.86;33.29
52105;BME280;38103;42.776;23.112;2023-02-17T08:31:24;94875.59;;;14.00;34.13
52105;BME280;38103;42.776;23.112;2023-02-17T08:33:50;94866.47;;;14.07;33.56
52105;BME280;38103;42.776;23.112;2023-02-17T08:36:16;94873.78;;;14.41;32.59
52105;BME280;38103;42.776;23.112;2023-02-17T08:38:41;94866.47;;;14.49;31.79
52105;BME280;38103;42.776;23.112;2023-02-17T08:43:42;94868.91;;;13.61;33.57
52105;BME280;38103;42.776;23.112;2023-02-17T08:46:09;94876.09;;;13.72;32.69
52105;BME280;38103;42.776;23.112;2023-02-17T08:48:35;94870.66;;;13.67;32.84
52105;BME280;38103;42.776;23.112;2023-02-17T08:51:01;94877.13;;;13.71;33.07
52105;BME280;38103;42.776;23.112;2023-02-17T08:53:26;94881.28;;;13.91;33.01
52105;BME280;38103;42.776;23.112;2023-02-17T08:55:52;94841.53;;;13.84;33.20
52105;BME280;38103;42.776;23.112;2023-02-17T08:58:17;94859.88;;;14.10;32.80
52105;BME280;38103;42.776;23.112;2023-02-17T09:00:43;94875.69;;;14.29;32.97
52105;BME280;38103;42.776;23.112;2023-02-17T09:03:08;94881.09;;;14.34;32.35
52105;BME280;38103;42.776;23.112;2023-02-17T09:05:34;94872.97;;;14.41;32.64
52105;BME280;38103;42.776;23.112;2023-02-17T09:08:00;94876.72;;;14.28;32.45
52105;BME280;38103;42.776;23.112;2023-02-17T09:10:26;94868.91;;;14.50;32.85
52105;BME280;38103;42.776;23.112;2023-02-17T09:12:51;94872.94;;;14.82;31.80
52105;BME280;38103;42.776;23.112;2023-02-17T09:15:17;94871.91;;;14.83;32.78
52105;BME280;38103;42.776;23.112;2023-02-17T09:17:42;94851.09;;;14.80;32.04
52105;BME280;38103;42.776;23.112;2023-02-17T09:20:08;94870.84;;;14.96;30.47
52105;BME280;38103;42.776;23.112;2023-02-17T09:22:34;94875.59;;;14.94;31.91
52105;BME280;38103;42.776;23.112;2023-02-17T09:24:59;94863.19;;;14.71;31.85
52105;BME280;38103;42.776;23.112;2023-02-17T09:27:25;94857.66;;;14.60;32.21
52105;BME280;38103;42.776;23.112;2023-02-17T09:29:50;94868.31;;;14.60;31.04
52105;BME280;38103;42.776;23.112;2023-02-17T09:32:15;94857.66;;;14.60;31.55
52105;BME280;38103;42.776;23.112;2023-02-17T09:34:41;94865.66;;;14.48;32.13
52105;BME280;38103;42.776;23.112;2023-02-17T09:37:13;94822.94;;;14.26;31.96
52105;BME280;38103;42.776;23.112;2023-02-17T09:39:39;94857.31;;;14.57;32.65
52105;BME280;38103;42.776;23.112;2023-02-17T09:42:04;94861.81;;;14.56;31.22
52105;BME280;38103;42.776;23.112;2023-02-17T09:44:44;94863.25;;;14.47;31.45
52105;BME280;38103;42.776;23.112;2023-02-17T09:47:19;94866.66;;;14.30;31.13
52105;BME280;38103;42.776;23.112;2023-02-17T09:49:53;94870.41;;;14.17;32.33
52105;BME280;38103;42.776;23.112;2023-02-17T09:55:14;94868.69;;;13.99;31.79
52105;BME280;38103;42.776;23.112;2023-02-17T09:57:50;94866.50;;;13.71;33.04
52105;BME280;38103;42.776;23.112;2023-02-17T10:00:27;94869.50;;;13.63;33.26
52105;BME280;38103;42.776;23.112;2023-02-17T10:03:03;94837.00;;;13.37;32.76
52105;BME280;38103;42.776;23.112;2023-02-17T10:05:37;94857.13;;;13.69;33.84
52105;BME280;38103;42.776;23.112;2023-02-17T10:08:09;94857.84;;;13.64;32.61
52105;BME280;38103;42.776;23.112;2023-02-17T10:11:02;94854.59;;;13.62;33.05
52105;BME280;38103;42.776;23.112;2023-02-17T10:13:28;94835.84;;;13.33;34.18
52105;BME280;38103;42.776;23.112;2023-02-17T10:15:58;94851.81;;;13.57;33.52
52105;BME280;38103;42.776;23.112;2023-02-17T10:19:07;94856.22;;;13.63;32.78
52105;BME280;38103;42.776;23.112;2023-02-17T10:21:39;94842.44;;;13.54;32.62
52105;BME280;38103;42.776;23.112;2023-02-17T10:24:08;94847.75;;;13.54;33.24
52105;BME280;38103;42.776;23.112;2023-02-17T10:26:48;94853.66;;;13.44;33.53
52105;BME280;38103;42.776;23.112;2023-02-17T10:32:24;94839.94;;;13.59;33.69
52105;BME280;38103;42.776;23.112;2023-02-17T10:35:12;94838.75;;;13.55;33.31
52105;BME280;38103;42.776;23.112;2023-02-17T10:40:24;94838.19;;;13.65;32.13
52105;BME280;38103;42.776;23.112;2023-02-17T10:42:53;94826.88;;;13.58;32.78
52105;BME280;38103;42.776;23.112;2023-02-17T10:45:24;94821.09;;;13.61;33.36
52105;BME280;38103;42.776;23.112;2023-02-17T10:47:56;94817.16;;;13.51;32.28
52105;BME280;38103;42.776;23.112;2023-02-17T10:50:23;94816.69;;;13.55;32.23
52105;BME280;38103;42.776;23.112;2023-02-17T10:52:49;94781.22;;;13.25;31.81
52105;BME280;38103;42.776;23.112;2023-02-17T10:55:36;94813.00;;;13.32;31.95
52105;BME280;38103;42.776;23.112;2023-02-17T10:58:25;94807.91;;;13.42;32.13
52105;BME280;38103;42.776;23.112;2023-02-17T11:00:54;94794.28;;;13.26;32.04
52105;BME280;38103;42.776;23.112;2023-02-17T11:03:26;94771.19;;;13.15;31.80
52105;BME280;38103;42.776;23.112;2023-02-17T11:06:00;94802.94;;;13.46;30.85
52105;BME280;38103;42.776;23.112;2023-02-17T11:08:44;94798.19;;;13.36;31.49
52105;BME280;38103;42.776;23.112;2023-02-17T11:11:27;94795.44;;;13.30;32.99
52105;BME280;38103;42.776;23.112;2023-02-17T11:14:09;94771.19;;;13.15;31.46
52105;BME280;38103;42.776;23.112;2023-02-17T11:17:21;94800.06;;;13.47;32.28
52105;BME280;38103;42.776;23.112;2023-02-17T11:22:58;94797.66;;;13.70;30.70
52105;BME280;38103;42.776;23.112;2023-02-17T11:25:26;94793.97;;;13.71;31.12
52105;BME280;38103;42.776;23.112;2023-02-17T11:27:57;94796.03;;;13.57;31.77
52105;BME280;38103;42.776;23.112;2023-02-17T11:30:24;94786.88;;;13.40;32.21
52105;BME280;38103;42.776;23.112;2023-02-17T11:32:50;94789.91;;;13.44;32.54
52105;BME280;38103;42.776;23.112;2023-02-17T11:38:01;94789.91;;;13.68;31.94
52105;BME280;38103;42.776;23.112;2023-02-17T11:40:30;94789.63;;;13.82;31.76
52105;BME280;38103;42.776;23.112;2023-02-17T11:43:00;94777.88;;;13.78;32.18
52105;BME280;38103;42.776;23.112;2023-02-17T11:45:36;94780.19;;;13.86;32.08
52105;BME280;38103;42.776;23.112;2023-02-17T11:51:05;94775.06;;;13.96;31.77
52105;BME280;38103;42.776;23.112;2023-02-17T11:56:22;94777.19;;;13.70;31.46
52105;BME280;38103;42.776;23.112;2023-02-17T12:12:55;94753.19;;;13.65;31.42
52105;BME280;38103;42.776;23.112;2023-02-17T12:15:46;94743.69;;;13.69;31.68
52105;BME280;38103;42.776;23.112;2023-02-17T12:18:54;94741.25;;;13.80;31.42
52105;BME280;38103;42.776;23.112;2023-02-17T12:21:36;94749.22;;;13.80;31.92
52105;BME280;38103;42.776;23.112;2023-02-17T12:26:44;94732.34;;;13.86;31.04
52105;BME280;38103;42.776;23.112;2023-02-17T12:34:57;94727.41;;;14.07;31.63
52105;BME280;38103;42.776;23.112;2023-02-17T12:37:33;94721.50;;;14.05;31.09
52105;BME280;38103;42.776;23.112;2023-02-17T12:41:16;94721.09;;;13.96;31.01
52105;BME280;38103;42.776;23.112;2023-02-17T12:45:51;94707.09;;;14.01;31.54
52105;BME280;38103;42.776;23.112;2023-02-17T12:48:36;94697.09;;;14.08;32.48
52105;BME280;38103;42.776;23.112;2023-02-17T12:51:07;94691.88;;;14.13;31.24
52105;BME280;38103;42.776;23.112;2023-02-17T12:53:52;94702.16;;;14.10;31.48
52105;BME280;38103;42.776;23.112;2023-02-17T12:56:27;94697.66;;;14.10;30.67
52105;BME280;38103;42.776;23.112;2023-02-17T12:59:10;94687.53;;;14.07;30.29
52105;BME280;38103;42.776;23.112;2023-02-17T13:01:37;94690.66;;;14.04;30.35
52105;BME280;38103;42.776;23.112;2023-02-17T13:04:10;94663.41;;;13.96;30.75
52105;BME280;38103;42.776;23.112;2023-02-17T13:06:42;94659.97;;;13.84;30.21
52105;BME280;38103;42.776;23.112;2023-02-17T13:09:38;94704.66;;;13.99;31.08
52105;BME280;38103;42.776;23.112;2023-02-17T13:12:29;94695.00;;;14.10;31.50
52105;BME280;38103;42.776;23.112;2023-02-17T13:15:24;94694.72;;;14.24;30.68
52105;BME280;38103;42.776;23.112;2023-02-17T13:18:13;94695.66;;;14.17;30.93
52105;BME280;38103;42.776;23.112;2023-02-17T13:23:37;94695.31;;;13.96;30.87
52105;BME280;38103;42.776;23.112;2023-02-17T13:28:48;94694.81;;;14.00;31.79
52105;BME280;38103;42.776;23.112;2023-02-17T13:31:18;94694.25;;;13.98;31.33
52105;BME280;38103;42.776;23.112;2023-02-17T13:33:55;94685.34;;;14.04;31.75
52105;BME280;38103;42.776;23.112;2023-02-17T13:39:28;94677.75;;;13.95;30.84
52105;BME280;38103;42.776;23.112;2023-02-17T13:41:50;94682.97;;;13.90;31.42
52105;BME280;38103;42.776;23.112;2023-02-17T13:44:40;94693.09;;;13.64;31.64
52105;BME280;38103;42.776;23.112;2023-02-17T13:47:23;94685.13;;;13.64;31.79
52105;BME280;38103;42.776;23.112;2023-02-17T13:49:55;94691.25;;;13.52;31.04
52105;BME280;38103;42.776;23.112;2023-02-17T13:52:26;94700.72;;;13.48;31.27
52105;BME280;38103;42.776;23.112;2023-02-17T13:54:57;94697.50;;;13.46;31.61
52105;BME280;38103;42.776;23.112;2023-02-17T13:57:27;94696.38;;;13.42;31.90
52105;BME280;38103;42.776;23.112;2023-02-17T14:00:08;94700.28;;;13.27;32.00
52105;BME280;38103;42.776;23.112;2023-02-17T14:02:36;94700.56;;;13.14;32.82
52105;BME280;38103;42.776;23.112;2023-02-17T14:05:58;94665.59;;;12.93;32.98
52105;BME280;38103;42.776;23.112;2023-02-17T14:08:06;94711.50;;;13.17;33.03
52105;BME280;38103;42.776;23.112;2023-02-17T14:10:36;94701.91;;;13.04;33.07
52105;BME280;38103;42.776;23.112;2023-02-17T14:13:02;94703.31;;;12.83;32.92
52105;BME280;38103;42.776;23.112;2023-02-17T14:15:28;94709.53;;;12.89;33.29
52105;BME280;38103;42.776;23.112;2023-02-17T14:17:54;94710.34;;;12.89;33.10
52105;BME280;38103;42.776;23.112;2023-02-17T14:20:25;94716.47;;;12.90;33.03
52105;BME280;38103;42.776;23.112;2023-02-17T14:23:12;94710.72;;;12.93;33.38